Current Weather

El Arish Intl

El Arish Intl, Egypt (HEAR)

Report from: Tuesday, February 27, 2024 4:00 AM EET
Current time: Tuesday, February 27, 2024 1:32 PM EET

Nearby weather – Weather history – Daily summaries
Weather forecast

Temperature9.0°C (48.2°F)
Dew point6.0°C (42.8°F)
Winds Calm
Clouds Sky clear
Altimeter29.88 in.Hg (1012 mB)
Relative humidity81 %
Density altitude-541 ft. (-165 m)
Remarks Ceiling and visibility OK
No significant changes expected in the next two hours
Flight conditions Visual Meteorological Conditions
Raw dataHEAR 270200Z 00000KT CAVOK 09/06 Q1012 NOSIG
An error has occurred. This application may no longer respond until reloaded. Reload 🗙